createdAt,value
2022-09-15T00:00:05.270Z,97223.00
2022-09-15T00:00:15.389Z,97223.00
2022-09-15T00:00:25.622Z,97219.00
2022-09-15T00:00:35.581Z,97223.00
2022-09-15T00:00:45.580Z,97223.00
2022-09-15T00:00:55.959Z,97219.00
2022-09-15T00:01:06.073Z,97221.00
2022-09-15T00:01:16.239Z,97223.00
2022-09-15T00:01:26.400Z,97221.00
2022-09-15T00:01:36.486Z,97221.00
2022-09-15T00:01:46.583Z,97219.00
2022-09-15T00:01:56.910Z,97221.00
2022-09-15T00:02:07.080Z,97223.00
2022-09-15T00:02:17.106Z,97221.00
2022-09-15T00:02:27.168Z,97223.00
2022-09-15T00:02:37.128Z,97221.00
2022-09-15T00:02:47.222Z,97221.00
2022-09-15T00:02:57.295Z,97219.00
2022-09-15T00:03:07.617Z,97221.00
2022-09-15T00:03:17.606Z,97225.00
2022-09-15T00:03:27.597Z,97221.00
2022-09-15T00:03:37.598Z,97221.00
2022-09-15T00:03:47.613Z,97225.00
2022-09-15T00:03:57.713Z,97223.00
2022-09-15T00:04:07.830Z,97225.00
2022-09-15T00:04:17.952Z,97221.00
2022-09-15T00:04:28.068Z,97227.00
2022-09-15T00:04:38.186Z,97223.00
2022-09-15T00:04:48.310Z,97225.00
2022-09-15T00:04:58.429Z,97225.00
2022-09-15T00:05:08.548Z,97225.00
2022-09-15T00:05:18.668Z,97227.00
2022-09-15T00:05:28.789Z,97225.00
2022-09-15T00:05:38.903Z,97225.00
2022-09-15T00:05:48.908Z,97227.00
2022-09-15T00:05:59.045Z,97223.00
2022-09-15T00:06:09.034Z,97225.00
2022-09-15T00:06:19.160Z,97229.00
2022-09-15T00:06:29.277Z,97227.00
2022-09-15T00:06:39.393Z,97225.00
2022-09-15T00:06:49.398Z,97227.00
2022-09-15T00:06:59.534Z,97227.00
2022-09-15T00:07:09.529Z,97227.00
2022-09-15T00:07:19.781Z,97225.00
2022-09-15T00:07:29.777Z,97229.00
2022-09-15T00:07:39.895Z,97229.00
2022-09-15T00:07:50.147Z,97225.00
2022-09-15T00:08:00.264Z,97227.00
2022-09-15T00:08:10.276Z,97229.00
2022-09-15T00:08:20.524Z,97227.00
2022-09-15T00:08:30.652Z,97227.00
2022-09-15T00:08:40.667Z,97227.00
2022-09-15T00:08:50.926Z,97225.00
2022-09-15T00:09:00.916Z,97227.00
2022-09-15T00:09:11.040Z,97229.00
2022-09-15T00:09:21.298Z,97223.00
2022-09-15T00:09:31.287Z,97227.00
2022-09-15T00:09:41.409Z,97229.00
2022-09-15T00:09:51.664Z,97223.00
2022-09-15T00:10:01.786Z,97229.00
2022-09-15T00:10:11.835Z,97225.00
2022-09-15T00:10:22.095Z,97223.00
2022-09-15T00:10:32.099Z,97225.00
2022-09-15T00:10:42.214Z,97225.00
2022-09-15T00:10:52.477Z,97225.00
2022-09-15T00:11:02.487Z,97227.00
2022-09-15T00:11:12.513Z,97227.00
2022-09-15T00:11:22.499Z,97227.00
2022-09-15T00:11:32.625Z,97227.00
2022-09-15T00:11:42.620Z,97227.00
2022-09-15T00:11:52.743Z,97227.00
2022-09-15T00:12:02.747Z,97225.00
2022-09-15T00:12:12.865Z,97225.00
2022-09-15T00:12:22.865Z,97225.00
2022-09-15T00:12:32.986Z,97227.00
2022-09-15T00:12:43.016Z,97225.00
2022-09-15T00:12:53.011Z,97225.00
2022-09-15T00:13:03.258Z,97225.00
2022-09-15T00:13:13.364Z,97225.00
2022-09-15T00:13:23.479Z,97225.00
2022-09-15T00:13:33.601Z,97223.00
2022-09-15T00:13:43.730Z,97225.00
2022-09-15T00:13:53.725Z,97225.00
2022-09-15T00:14:03.976Z,97223.00
2022-09-15T00:14:14.093Z,97221.00
2022-09-15T00:14:24.208Z,97219.00
2022-09-15T00:14:34.340Z,97219.00
2022-09-15T00:14:44.454Z,97219.00
2022-09-15T00:14:54.583Z,97221.00
2022-09-15T00:15:04.713Z,97221.00
2022-09-15T00:15:14.892Z,97219.00
2022-09-15T00:15:24.872Z,97219.00
2022-09-15T00:15:35.188Z,97221.00
2022-09-15T00:15:45.153Z,97219.00
2022-09-15T00:15:55.282Z,97219.00
2022-09-15T00:16:05.535Z,97219.00
2022-09-15T00:16:15.847Z,97219.00
2022-09-15T00:16:25.828Z,97221.00
2022-09-15T00:16:35.980Z,97219.00
2022-09-15T00:16:46.093Z,97219.00
2022-09-15T00:16:56.219Z,97221.00
2022-09-15T00:17:06.460Z,97219.00
2022-09-15T00:17:16.453Z,97221.00
2022-09-15T00:17:26.455Z,97219.00
2022-09-15T00:17:36.831Z,97219.00
2022-09-15T00:17:46.851Z,97217.00
2022-09-15T00:17:56.961Z,97219.00
2022-09-15T00:18:07.217Z,97219.00
2022-09-15T00:18:17.344Z,97219.00
2022-09-15T00:18:27.343Z,97219.00
2022-09-15T00:18:37.601Z,97221.00
2022-09-15T00:18:47.615Z,97219.00
2022-09-15T00:18:57.663Z,97219.00
2022-09-15T00:19:07.624Z,97217.00
2022-09-15T00:19:17.642Z,97217.00
2022-09-15T00:19:27.762Z,97219.00
2022-09-15T00:19:37.883Z,97217.00
2022-09-15T00:19:48.000Z,97219.00
2022-09-15T00:19:58.004Z,97217.00
2022-09-15T00:20:08.119Z,97217.00
2022-09-15T00:20:18.244Z,97215.00
2022-09-15T00:20:28.243Z,97217.00
2022-09-15T00:20:38.360Z,97217.00
2022-09-15T00:20:48.481Z,97217.00
2022-09-15T00:20:58.601Z,97219.00
2022-09-15T00:21:08.599Z,97217.00
2022-09-15T00:21:18.720Z,97217.00
2022-09-15T00:21:28.722Z,97217.00
2022-09-15T00:21:38.837Z,97217.00
2022-09-15T00:21:49.099Z,97219.00
2022-09-15T00:21:59.216Z,97217.00
2022-09-15T00:22:09.354Z,97217.00
2022-09-15T00:22:19.509Z,97215.00
2022-09-15T00:22:29.508Z,97215.00
2022-09-15T00:22:39.625Z,97215.00
2022-09-15T00:22:50.035Z,97215.00
2022-09-15T00:22:59.921Z,97213.00
2022-09-15T00:23:09.920Z,97213.00
2022-09-15T00:23:20.319Z,97213.00
2022-09-15T00:23:30.317Z,97211.00
2022-09-15T00:23:40.439Z,97211.00
2022-09-15T00:23:50.696Z,97211.00
2022-09-15T00:24:00.817Z,97211.00
2022-09-15T00:24:10.939Z,97201.00
2022-09-15T00:24:21.063Z,97201.00
2022-09-15T00:24:31.061Z,97201.00
2022-09-15T00:24:41.207Z,97201.00
2022-09-15T00:24:51.450Z,97199.00
2022-09-15T00:25:01.580Z,97199.00
2022-09-15T00:25:11.570Z,97197.00
2022-09-15T00:25:21.818Z,97199.00
2022-09-15T00:25:31.940Z,97197.00
2022-09-15T00:25:42.059Z,97195.00
2022-09-15T00:25:52.186Z,97197.00
2022-09-15T00:26:02.195Z,97195.00
2022-09-15T00:26:12.187Z,97195.00
2022-09-15T00:26:22.596Z,97195.00
2022-09-15T00:26:32.595Z,97195.00
2022-09-15T00:26:42.713Z,97195.00
2022-09-15T00:26:52.968Z,97195.00
2022-09-15T00:27:03.115Z,97195.00
2022-09-15T00:27:13.105Z,97195.00
2022-09-15T00:27:23.364Z,97193.00
2022-09-15T00:27:33.365Z,97191.00
2022-09-15T00:27:43.354Z,97191.00
2022-09-15T00:27:53.733Z,97193.00
2022-09-15T00:28:03.731Z,97189.00
2022-09-15T00:28:13.851Z,97193.00
2022-09-15T00:28:24.102Z,97189.00
2022-09-15T00:28:34.217Z,97191.00
2022-09-15T00:28:44.246Z,97191.00
2022-09-15T00:28:54.493Z,97189.00
2022-09-15T00:29:04.628Z,97191.00
2022-09-15T00:29:14.619Z,97187.00
2022-09-15T00:29:24.879Z,97189.00
2022-09-15T00:29:35.009Z,97189.00
2022-09-15T00:29:45.113Z,97187.00
2022-09-15T00:29:55.244Z,97185.00
2022-09-15T00:30:05.366Z,97185.00
2022-09-15T00:30:15.490Z,97183.00
2022-09-15T00:30:25.676Z,97185.00
2022-09-15T00:30:35.824Z,97183.00
2022-09-15T00:30:45.983Z,97179.00
2022-09-15T00:30:56.205Z,97181.00
2022-09-15T00:31:06.464Z,97185.00
2022-09-15T00:31:16.512Z,97181.00
2022-09-15T00:31:26.490Z,97183.00
2022-09-15T00:31:36.391Z,97179.00
2022-09-15T00:31:46.510Z,97183.00
2022-09-15T00:31:56.507Z,97177.00
2022-09-15T00:32:06.630Z,97179.00
2022-09-15T00:32:16.635Z,97177.00
2022-09-15T00:32:26.630Z,97177.00
2022-09-15T00:32:36.892Z,97175.00
2022-09-15T00:32:46.896Z,97179.00
2022-09-15T00:32:56.891Z,97175.00
2022-09-15T00:33:07.273Z,97175.00
2022-09-15T00:33:17.266Z,97175.00
2022-09-15T00:33:27.396Z,97173.00
2022-09-15T00:33:37.661Z,97175.00
2022-09-15T00:33:47.662Z,97173.00
2022-09-15T00:33:57.766Z,97177.00
2022-09-15T00:34:08.016Z,97173.00
2022-09-15T00:34:18.025Z,97173.00
2022-09-15T00:34:28.144Z,97173.00
2022-09-15T00:34:38.410Z,97173.00
2022-09-15T00:34:48.511Z,97171.00
2022-09-15T00:34:58.642Z,97175.00
2022-09-15T00:35:08.774Z,97171.00
2022-09-15T00:35:18.895Z,97173.00
2022-09-15T00:35:28.895Z,97173.00
2022-09-15T00:35:39.143Z,97173.00
2022-09-15T00:35:49.262Z,97171.00
2022-09-15T00:35:59.262Z,97173.00
2022-09-15T00:36:09.510Z,97173.00
2022-09-15T00:36:19.509Z,97173.00
2022-09-15T00:36:29.618Z,97170.00
2022-09-15T00:36:39.872Z,97171.00
2022-09-15T00:36:49.994Z,97170.00
2022-09-15T00:36:59.991Z,97171.00
2022-09-15T00:37:10.242Z,97171.00
2022-09-15T00:37:20.358Z,97171.00
2022-09-15T00:37:30.366Z,97171.00
2022-09-15T00:37:40.628Z,97170.00
2022-09-15T00:37:50.614Z,97171.00
2022-09-15T00:38:00.653Z,97171.00
2022-09-15T00:38:11.041Z,97170.00
2022-09-15T00:38:21.153Z,97171.00
2022-09-15T00:38:31.159Z,97173.00
2022-09-15T00:38:41.426Z,97171.00
2022-09-15T00:38:51.414Z,97173.00
2022-09-15T00:39:01.540Z,97173.00
2022-09-15T00:39:11.784Z,97171.00
2022-09-15T00:39:21.789Z,97171.00
2022-09-15T00:39:31.795Z,97175.00
2022-09-15T00:39:41.792Z,97173.00
2022-09-15T00:39:52.042Z,97173.00
2022-09-15T00:40:01.995Z,97173.00
2022-09-15T00:40:12.092Z,97175.00
2022-09-15T00:40:22.133Z,97175.00
2022-09-15T00:40:32.254Z,97175.00
2022-09-15T00:40:42.287Z,97177.00
2022-09-15T00:40:52.420Z,97179.00
2022-09-15T00:41:02.426Z,97179.00
2022-09-15T00:41:12.425Z,97181.00
2022-09-15T00:41:22.803Z,97179.00
2022-09-15T00:41:32.941Z,97183.00
2022-09-15T00:41:42.944Z,97183.00
2022-09-15T00:41:53.187Z,97185.00
2022-09-15T00:42:03.305Z,97183.00
2022-09-15T00:42:13.318Z,97183.00
2022-09-15T00:42:23.565Z,97187.00
2022-09-15T00:42:33.564Z,97187.00
2022-09-15T00:42:43.566Z,97187.00
2022-09-15T00:42:53.566Z,97187.00
2022-09-15T00:43:03.692Z,97187.00
2022-09-15T00:43:13.810Z,97187.00
2022-09-15T00:43:23.816Z,97187.00
2022-09-15T00:43:33.937Z,97189.00
2022-09-15T00:43:43.994Z,97189.00
2022-09-15T00:43:54.009Z,97191.00
2022-09-15T00:44:04.023Z,97189.00
2022-09-15T00:44:14.135Z,97193.00
2022-09-15T00:44:24.134Z,97195.00
2022-09-15T00:44:34.389Z,97193.00
2022-09-15T00:44:44.386Z,97193.00
2022-09-15T00:44:54.504Z,97193.00
2022-09-15T00:45:04.762Z,97195.00
2022-09-15T00:45:14.879Z,97197.00
2022-09-15T00:45:25.077Z,97193.00
2022-09-15T00:45:35.271Z,97195.00
2022-09-15T00:45:45.266Z,97195.00
2022-09-15T00:45:55.445Z,97195.00
2022-09-15T00:46:05.386Z,97197.00
2022-09-15T00:46:15.461Z,97193.00
2022-09-15T00:46:25.495Z,97193.00
2022-09-15T00:46:35.613Z,97197.00
2022-09-15T00:46:54.822Z,97195.00
2022-09-15T00:47:17.807Z,97197.00
2022-09-15T00:47:18.624Z,97195.00
2022-09-15T00:47:19.762Z,97193.00
2022-09-15T00:47:25.949Z,97195.00
2022-09-15T00:47:35.939Z,97195.00
2022-09-15T00:47:46.056Z,97195.00
2022-09-15T00:47:56.172Z,97191.00
2022-09-15T00:48:06.176Z,97195.00
2022-09-15T00:48:16.300Z,97193.00
2022-09-15T00:48:26.414Z,97195.00
2022-09-15T00:48:36.535Z,97193.00
2022-09-15T00:48:46.652Z,97193.00
2022-09-15T00:48:56.775Z,97197.00
2022-09-15T00:49:06.779Z,97197.00
2022-09-15T00:49:16.897Z,97197.00
2022-09-15T00:49:27.011Z,97197.00
2022-09-15T00:49:37.147Z,97197.00
2022-09-15T00:49:47.148Z,97195.00
2022-09-15T00:49:59.420Z,97197.00
2022-09-15T00:50:07.277Z,97199.00
2022-09-15T00:50:17.265Z,97197.00
2022-09-15T00:50:27.392Z,97195.00
2022-09-15T00:50:37.406Z,97195.00
2022-09-15T00:50:47.424Z,97195.00
2022-09-15T00:50:57.419Z,97195.00
2022-09-15T00:51:07.542Z,97195.00
2022-09-15T00:51:17.540Z,97197.00
2022-09-15T00:51:27.660Z,97195.00
2022-09-15T00:51:37.662Z,97197.00
2022-09-15T00:51:47.783Z,97193.00
2022-09-15T00:51:57.780Z,97193.00
2022-09-15T00:52:07.899Z,97193.00
2022-09-15T00:52:17.904Z,97193.00
2022-09-15T00:52:28.022Z,97193.00
2022-09-15T00:52:38.168Z,97195.00
2022-09-15T00:52:48.170Z,97193.00
2022-09-15T00:52:58.169Z,97195.00
2022-09-15T00:53:08.546Z,97195.00
2022-09-15T00:53:18.539Z,97195.00
2022-09-15T00:53:28.658Z,97193.00
2022-09-15T00:53:38.910Z,97195.00
2022-09-15T00:53:49.036Z,97195.00
2022-09-15T00:53:59.033Z,97195.00
2022-09-15T00:54:09.300Z,97195.00
2022-09-15T00:54:19.290Z,97195.00
2022-09-15T00:54:29.411Z,97195.00
2022-09-15T00:54:39.655Z,97191.00
2022-09-15T00:54:49.769Z,97191.00
2022-09-15T00:54:59.896Z,97191.00
2022-09-15T00:55:10.024Z,97191.00
2022-09-15T00:55:20.019Z,97189.00
2022-09-15T00:55:30.138Z,97191.00
2022-09-15T00:55:40.393Z,97187.00
2022-09-15T00:55:50.512Z,97187.00
2022-09-15T00:56:00.510Z,97187.00
2022-09-15T00:56:10.759Z,97185.00
2022-09-15T00:56:20.756Z,97185.00
2022-09-15T00:56:30.873Z,97183.00
2022-09-15T00:56:41.138Z,97181.00
2022-09-15T00:56:51.274Z,97181.00
2022-09-15T00:57:01.369Z,97179.00
2022-09-15T00:57:11.494Z,97179.00
2022-09-15T00:57:21.616Z,97179.00
2022-09-15T00:57:31.737Z,97175.00
2022-09-15T00:57:41.867Z,97175.00
2022-09-15T00:57:51.868Z,97173.00
2022-09-15T00:58:01.984Z,97173.00
2022-09-15T00:58:12.235Z,97171.00
2022-09-15T00:58:22.240Z,97173.00
2022-09-15T00:58:32.358Z,97171.00
2022-09-15T00:58:42.606Z,97170.00
2022-09-15T00:58:52.852Z,97170.00
2022-09-15T00:59:02.843Z,97170.00
2022-09-15T00:59:12.965Z,97170.00
2022-09-15T00:59:22.969Z,97168.00
2022-09-15T00:59:33.084Z,97168.00
2022-09-15T00:59:43.345Z,97168.00
2022-09-15T00:59:53.346Z,97171.00
2022-09-15T01:00:03.462Z,97168.00
2022-09-15T01:00:13.750Z,97168.00
2022-09-15T01:00:23.731Z,97170.00
2022-09-15T01:00:33.849Z,97170.00
2022-09-15T01:00:44.139Z,97170.00
2022-09-15T01:00:54.219Z,97170.00
2022-09-15T01:01:04.289Z,97171.00
2022-09-15T01:01:14.283Z,97171.00
2022-09-15T01:01:24.375Z,97173.00
2022-09-15T01:01:34.342Z,97173.00
2022-09-15T01:01:44.556Z,97171.00
2022-09-15T01:01:54.450Z,97173.00
2022-09-15T01:02:04.545Z,97171.00
2022-09-15T01:02:14.572Z,97175.00
2022-09-15T01:02:24.626Z,97173.00
2022-09-15T01:02:34.716Z,97173.00
2022-09-15T01:02:44.900Z,97173.00
2022-09-15T01:02:54.868Z,97177.00
2022-09-15T01:03:04.985Z,97177.00
2022-09-15T01:03:15.112Z,97175.00
2022-09-15T01:03:25.110Z,97177.00
2022-09-15T01:03:35.226Z,97175.00
2022-09-15T01:03:45.358Z,97179.00
2022-09-15T01:03:55.354Z,97175.00
2022-09-15T01:04:05.499Z,97175.00
2022-09-15T01:04:15.501Z,97175.00
2022-09-15T01:04:25.612Z,97175.00
2022-09-15T01:04:35.731Z,97175.00
2022-09-15T01:04:45.852Z,97175.00
2022-09-15T01:04:58.353Z,97177.00
2022-09-15T01:05:06.014Z,97177.00
2022-09-15T01:05:16.137Z,97179.00
2022-09-15T01:05:26.143Z,97179.00
2022-09-15T01:05:36.147Z,97179.00
2022-09-15T01:05:46.147Z,97179.00
2022-09-15T01:05:56.158Z,97181.00
2022-09-15T01:06:06.288Z,97179.00
2022-09-15T01:06:16.394Z,97179.00
2022-09-15T01:06:26.508Z,97179.00
2022-09-15T01:06:36.513Z,97179.00
2022-09-15T01:06:46.522Z,97181.00
2022-09-15T01:06:56.639Z,97179.00
2022-09-15T01:07:06.908Z,97177.00
2022-09-15T01:07:16.905Z,97185.00
2022-09-15T01:07:27.019Z,97179.00
2022-09-15T01:07:37.262Z,97181.00
2022-09-15T01:07:47.279Z,97183.00
2022-09-15T01:07:57.422Z,97181.00
2022-09-15T01:08:07.640Z,97181.00
2022-09-15T01:08:17.649Z,97183.00
2022-09-15T01:08:27.643Z,97183.00
2022-09-15T01:08:37.644Z,97181.00
2022-09-15T01:08:47.653Z,97183.00
2022-09-15T01:08:57.770Z,97179.00
2022-09-15T01:09:07.885Z,97183.00
2022-09-15T01:09:18.010Z,97181.00
2022-09-15T01:09:28.124Z,97181.00
2022-09-15T01:09:38.240Z,97179.00
2022-09-15T01:09:48.246Z,97181.00
2022-09-15T01:09:58.373Z,97181.00
2022-09-15T01:10:08.373Z,97181.00
2022-09-15T01:10:18.496Z,97181.00
2022-09-15T01:10:28.497Z,97179.00
2022-09-15T01:10:38.613Z,97179.00
2022-09-15T01:10:48.753Z,97181.00
2022-09-15T01:10:58.869Z,97177.00
2022-09-15T01:11:08.987Z,97177.00
2022-09-15T01:11:19.117Z,97177.00
2022-09-15T01:11:29.159Z,97177.00
2022-09-15T01:11:39.283Z,97177.00
2022-09-15T01:11:49.530Z,97177.00
2022-09-15T01:11:59.648Z,97177.00
2022-09-15T01:12:09.765Z,97175.00
2022-09-15T01:12:19.891Z,97173.00
2022-09-15T01:12:29.892Z,97175.00
2022-09-15T01:12:40.011Z,97175.00
2022-09-15T01:12:50.273Z,97175.00
2022-09-15T01:13:00.272Z,97171.00
2022-09-15T01:13:10.272Z,97170.00
2022-09-15T01:13:20.651Z,97173.00
2022-09-15T01:13:30.656Z,97173.00
2022-09-15T01:13:40.774Z,97171.00
2022-09-15T01:13:51.025Z,97170.00
2022-09-15T01:14:01.147Z,97170.00
2022-09-15T01:14:11.146Z,97170.00
2022-09-15T01:14:21.411Z,97168.00
2022-09-15T01:14:31.403Z,97171.00
2022-09-15T01:14:41.524Z,97168.00
2022-09-15T01:14:51.771Z,97171.00
2022-09-15T01:15:01.887Z,97171.00
2022-09-15T01:15:12.004Z,97171.00
2022-09-15T01:15:22.126Z,97170.00
2022-09-15T01:15:32.241Z,97171.00
2022-09-15T01:15:42.360Z,97170.00
2022-09-15T01:15:52.489Z,97173.00
2022-09-15T01:16:02.646Z,97170.00
2022-09-15T01:16:12.731Z,97171.00
2022-09-15T01:16:23.002Z,97171.00
2022-09-15T01:16:33.065Z,97170.00
2022-09-15T01:16:43.157Z,97170.00
2022-09-15T01:16:53.479Z,97170.00
2022-09-15T01:17:03.372Z,97171.00
2022-09-15T01:17:13.488Z,97170.00
2022-09-15T01:17:23.737Z,97171.00
2022-09-15T01:17:33.854Z,97171.00
2022-09-15T01:17:43.972Z,97170.00
2022-09-15T01:17:54.102Z,97171.00
2022-09-15T01:18:04.224Z,97173.00
2022-09-15T01:18:14.227Z,97173.00
2022-09-15T01:18:24.475Z,97175.00
2022-09-15T01:18:34.482Z,97175.00
2022-09-15T01:18:44.601Z,97173.00
2022-09-15T01:18:54.859Z,97175.00
2022-09-15T01:19:04.984Z,97175.00
2022-09-15T01:19:14.974Z,97179.00
2022-09-15T01:19:25.238Z,97179.00
2022-09-15T01:19:35.238Z,97179.00
2022-09-15T01:19:45.241Z,97175.00
2022-09-15T01:19:55.238Z,97177.00
2022-09-15T01:20:05.365Z,97175.00
2022-09-15T01:20:15.363Z,97175.00
2022-09-15T01:20:25.496Z,97179.00
2022-09-15T01:20:35.505Z,97175.00
2022-09-15T01:20:45.618Z,97177.00
2022-09-15T01:20:55.614Z,97175.00
2022-09-15T01:21:05.744Z,97177.00
2022-09-15T01:21:15.859Z,97179.00
2022-09-15T01:21:25.981Z,97181.00
2022-09-15T01:21:35.986Z,97179.00
2022-09-15T01:21:46.106Z,97177.00
2022-09-15T01:21:58.861Z,97181.00
2022-09-15T01:22:06.268Z,97177.00
2022-09-15T01:22:16.269Z,97179.00
2022-09-15T01:22:26.510Z,97177.00
2022-09-15T01:22:36.513Z,97179.00
2022-09-15T01:22:46.513Z,97179.00
2022-09-15T01:22:56.510Z,97177.00
2022-09-15T01:23:06.634Z,97177.00
2022-09-15T01:23:16.634Z,97177.00
2022-09-15T01:23:26.754Z,97175.00
2022-09-15T01:23:36.885Z,97175.00
2022-09-15T01:23:47.005Z,97177.00
2022-09-15T01:23:57.134Z,97175.00
2022-09-15T01:24:07.270Z,97173.00
2022-09-15T01:24:17.382Z,97171.00
2022-09-15T01:24:27.379Z,97173.00
2022-09-15T01:24:37.628Z,97173.00
2022-09-15T01:24:47.744Z,97171.00
2022-09-15T01:24:57.743Z,97171.00
2022-09-15T01:25:07.997Z,97171.00
2022-09-15T01:25:17.993Z,97171.00
2022-09-15T01:25:28.109Z,97168.00
2022-09-15T01:25:38.358Z,97170.00
2022-09-15T01:25:48.483Z,97171.00
2022-09-15T01:25:58.479Z,97171.00
2022-09-15T01:26:08.728Z,97170.00
2022-09-15T01:26:18.854Z,97170.00
2022-09-15T01:26:28.960Z,97170.00
2022-09-15T01:26:39.078Z,97170.00
2022-09-15T01:26:49.203Z,97170.00
2022-09-15T01:26:59.203Z,97170.00
2022-09-15T01:27:30.553Z,97170.00
2022-09-15T01:27:41.148Z,97173.00
2022-09-15T01:27:42.055Z,97173.00
2022-09-15T01:27:42.437Z,97171.00
2022-09-15T01:27:49.812Z,97173.00
2022-09-15T01:27:59.813Z,97173.00
2022-09-15T01:28:09.935Z,97175.00
2022-09-15T01:28:19.939Z,97173.00
2022-09-15T01:28:30.056Z,97170.00
2022-09-15T01:28:40.171Z,97175.00
2022-09-15T01:28:50.291Z,97173.00
2022-09-15T01:29:00.406Z,97171.00
2022-09-15T01:29:10.523Z,97175.00
2022-09-15T01:29:21.803Z,97173.00
2022-09-15T01:29:30.745Z,97175.00
2022-09-15T01:29:40.743Z,97173.00
2022-09-15T01:29:50.862Z,97173.00
2022-09-15T01:30:00.981Z,97170.00
2022-09-15T01:30:11.102Z,97170.00
2022-09-15T01:30:21.102Z,97168.00
2022-09-15T01:30:31.215Z,97170.00
2022-09-15T01:30:41.334Z,97168.00
2022-09-15T01:30:51.457Z,97168.00
2022-09-15T01:31:01.606Z,97168.00
2022-09-15T01:31:11.708Z,97168.00
2022-09-15T01:31:21.987Z,97168.00
2022-09-15T01:31:32.025Z,97168.00
2022-09-15T01:31:42.124Z,97166.00
2022-09-15T01:31:52.418Z,97168.00
2022-09-15T01:32:02.472Z,97170.00
2022-09-15T01:32:12.475Z,97170.00
2022-09-15T01:32:22.852Z,97168.00
2022-09-15T01:32:32.979Z,97168.00
2022-09-15T01:32:42.979Z,97168.00
2022-09-15T01:32:53.227Z,97166.00
2022-09-15T01:33:03.229Z,97168.00
2022-09-15T01:33:13.355Z,97168.00
2022-09-15T01:33:23.612Z,97166.00
2022-09-15T01:33:33.602Z,97164.00
2022-09-15T01:33:43.719Z,97166.00
2022-09-15T01:33:53.967Z,97164.00
2022-09-15T01:34:04.094Z,97164.00
2022-09-15T01:34:14.089Z,97164.00
2022-09-15T01:34:24.343Z,97164.00
2022-09-15T01:34:34.466Z,97164.00
2022-09-15T01:34:44.459Z,97164.00
2022-09-15T01:34:54.726Z,97166.00
2022-09-15T01:35:04.836Z,97166.00
2022-09-15T01:35:14.838Z,97166.00
2022-09-15T01:35:25.094Z,97166.00
2022-09-15T01:35:35.209Z,97166.00
2022-09-15T01:35:45.329Z,97168.00
2022-09-15T01:35:55.451Z,97166.00
2022-09-15T01:36:05.458Z,97168.00
2022-09-15T01:36:15.578Z,97168.00
2022-09-15T01:36:25.823Z,97166.00
2022-09-15T01:36:35.940Z,97168.00
2022-09-15T01:36:46.058Z,97170.00
2022-09-15T01:36:56.197Z,97164.00
2022-09-15T01:37:06.318Z,97168.00
2022-09-15T01:37:16.319Z,97164.00
2022-09-15T01:37:26.568Z,97164.00
2022-09-15T01:37:36.568Z,97164.00
2022-09-15T01:37:46.686Z,97164.00
2022-09-15T01:37:56.936Z,97166.00
2022-09-15T01:38:07.052Z,97166.00
2022-09-15T01:38:17.051Z,97166.00
2022-09-15T01:38:27.308Z,97168.00
2022-09-15T01:38:37.306Z,97168.00
2022-09-15T01:38:47.417Z,97166.00
2022-09-15T01:38:57.669Z,97166.00
2022-09-15T01:39:07.787Z,97166.00
2022-09-15T01:39:17.788Z,97164.00
2022-09-15T01:39:28.038Z,97166.00
2022-09-15T01:39:38.046Z,97166.00
2022-09-15T01:39:48.103Z,97164.00
2022-09-15T01:39:58.194Z,97162.00
2022-09-15T01:40:08.294Z,97158.00
2022-09-15T01:40:18.355Z,97160.00
2022-09-15T01:40:28.340Z,97164.00
2022-09-15T01:40:38.340Z,97158.00
2022-09-15T01:40:48.459Z,97158.00
2022-09-15T01:40:58.577Z,97158.00
2022-09-15T01:41:08.697Z,97160.00
2022-09-15T01:41:18.811Z,97158.00
2022-09-15T01:41:28.936Z,97160.00
2022-09-15T01:41:39.085Z,97162.00
2022-09-15T01:41:49.077Z,97162.00
2022-09-15T01:41:59.215Z,97160.00
2022-09-15T01:42:09.473Z,97162.00
2022-09-15T01:42:19.466Z,97162.00
2022-09-15T01:42:29.584Z,97158.00
2022-09-15T01:42:39.836Z,97156.00
2022-09-15T01:42:49.955Z,97158.00
2022-09-15T01:43:00.078Z,97156.00
2022-09-15T01:43:10.196Z,97156.00
2022-09-15T01:43:20.311Z,97156.00
2022-09-15T01:43:30.434Z,97156.00
2022-09-15T01:43:40.560Z,97158.00
2022-09-15T01:43:50.679Z,97158.00
2022-09-15T01:44:00.680Z,97156.00
2022-09-15T01:44:10.930Z,97156.00
2022-09-15T01:44:21.056Z,97156.00
2022-09-15T01:44:31.049Z,97156.00
2022-09-15T01:44:41.313Z,97154.00
2022-09-15T01:44:51.431Z,97156.00
2022-09-15T01:45:01.571Z,97156.00
2022-09-15T01:45:11.702Z,97156.00
2022-09-15T01:45:21.860Z,97154.00
2022-09-15T01:45:31.960Z,97154.00
2022-09-15T01:45:42.149Z,97156.00
2022-09-15T01:45:52.242Z,97154.00
2022-09-15T01:46:02.305Z,97156.00
2022-09-15T01:46:12.432Z,97156.00
2022-09-15T01:46:22.324Z,97156.00
2022-09-15T01:46:32.512Z,97154.00
2022-09-15T01:46:42.482Z,97156.00
2022-09-15T01:46:52.611Z,97154.00
2022-09-15T01:47:02.726Z,97156.00
2022-09-15T01:47:12.845Z,97156.00
2022-09-15T01:47:22.886Z,97156.00
2022-09-15T01:47:32.870Z,97158.00
2022-09-15T01:47:42.871Z,97156.00
2022-09-15T01:47:52.876Z,97160.00
2022-09-15T01:48:02.995Z,97158.00
2022-09-15T01:48:13.007Z,97156.00
2022-09-15T01:48:23.005Z,97160.00
2022-09-15T01:48:33.127Z,97160.00
2022-09-15T01:48:43.254Z,97160.00
2022-09-15T01:48:53.253Z,97160.00
2022-09-15T01:49:03.372Z,97158.00
2022-09-15T01:49:13.491Z,97162.00
2022-09-15T01:49:23.494Z,97160.00
2022-09-15T01:49:33.625Z,97160.00
2022-09-15T01:49:43.618Z,97162.00
2022-09-15T01:49:53.627Z,97162.00
2022-09-15T01:50:03.998Z,97162.00
2022-09-15T01:50:13.998Z,97162.00
2022-09-15T01:50:23.994Z,97162.00
2022-09-15T01:50:34.375Z,97162.00
2022-09-15T01:50:44.373Z,97162.00
2022-09-15T01:50:54.484Z,97162.00
2022-09-15T01:51:04.768Z,97162.00
2022-09-15T01:51:14.882Z,97162.00
2022-09-15T01:51:25.005Z,97162.00
2022-09-15T01:51:35.127Z,97162.00
2022-09-15T01:51:45.245Z,97162.00
2022-09-15T01:51:55.376Z,97164.00
2022-09-15T01:52:05.501Z,97162.00
2022-09-15T01:52:15.499Z,97164.00
2022-09-15T01:52:25.616Z,97164.00
2022-09-15T01:52:35.862Z,97164.00
2022-09-15T01:52:46.018Z,97164.00
2022-09-15T01:52:56.011Z,97164.00
2022-09-15T01:53:06.274Z,97166.00
2022-09-15T01:53:16.394Z,97164.00
2022-09-15T01:53:26.512Z,97164.00
2022-09-15T01:53:36.645Z,97166.00
2022-09-15T01:53:46.763Z,97166.00
2022-09-15T01:53:56.880Z,97166.00
2022-09-15T01:54:07.006Z,97168.00
2022-09-15T01:54:17.121Z,97166.00
2022-09-15T01:54:27.248Z,97168.00
2022-09-15T01:54:37.366Z,97166.00
2022-09-15T01:54:47.365Z,97166.00
2022-09-15T01:54:57.484Z,97166.00
2022-09-15T01:55:07.731Z,97166.00
2022-09-15T01:55:17.854Z,97164.00
2022-09-15T01:55:27.857Z,97166.00
2022-09-15T01:55:38.117Z,97168.00
2022-09-15T01:55:48.235Z,97166.00
2022-09-15T01:55:58.351Z,97164.00
2022-09-15T01:56:08.472Z,97164.00
2022-09-15T01:56:18.590Z,97166.00
2022-09-15T01:56:28.598Z,97166.00
2022-09-15T01:56:38.854Z,97166.00
2022-09-15T01:56:48.857Z,97166.00
2022-09-15T01:56:58.974Z,97166.00
2022-09-15T01:57:09.233Z,97166.00
2022-09-15T01:57:19.237Z,97166.00
2022-09-15T01:57:29.348Z,97166.00
2022-09-15T01:57:39.599Z,97166.00
2022-09-15T01:57:49.617Z,97166.00
2022-09-15T01:57:59.607Z,97168.00
2022-09-15T01:58:09.985Z,97168.00
2022-09-15T01:58:19.987Z,97168.00
2022-09-15T01:58:30.106Z,97170.00
2022-09-15T01:58:40.351Z,97168.00